Terminal Aerodrome Forecast
Issued by NWS Upton, NY

Home | Current Version | Previous Version | Text Only | Print | Product List | Glossary On
Versions: 1 2 3 4 5 6 7 8 9 10 11 12 13 14 15 16 17 18 19 20 21 22 23 24 25 26 27 28 29 30 31 32
374
FTUS41 KOKX 300731 AAB
TAFISP
TAF AMD
KISP 300731Z 3008/3106 VRB05KT P6SM OVC007
      TEMPO 3009/3013 6SM BR
     FM301300 14007KT P6SM OVC005
     FM301500 15008KT P6SM BKN008 OVC015
     FM301800 15010KT P6SM BKN015 OVC025
     FM302300 15006KT 5SM BR BKN008 OVC015
     FM310200 VRB05KT 4SM -DZ BR OVC004=

USA.gov is the U.S. government's official web portal to all federal, state and local government web resources and services.